Welcome to our new website - Welkom op onze vernieuwde website - Bienvenue sur notre nouveau site web - Willkommen auf unserer neuen Website

U vindt ons ook hier:

Het Weer Aktueel



METAR rapporten vliegvelden

   
EHAM - Amsterdam/Schiph, Netherlands
Afstand tot: WNW 31 km
Gewijzigd: 27-09-2020 05:55
Grotendeels bewolkt  
Grotendeels bewolkt  
   Wind: Noorden 27.8 km/h<br />Gust to 27.8 km/h
Wind: Noorden 27.8 km/h
Gust to 27.8 km/h
Temperatuur: 16°C
Dauwpunt: 15°C
Vochtigheid: 94%
Barometer: 997 hPa
Bewolking: Grotendeels bewolkt
Zicht: meer dan 10 km
Bewolking: Gedeeltelijk bewolkt 600 ft,
Grotendeels bewolkt 800 ft
EHAM 270355Z 01015G28KT 330V050 9999 SCT006 BKN008 16/15 Q0997 TEMPO SCT008 BKN018
EHDL - Deelen Rnlafb, Netherlands
Afstand tot: OZO 48 km
Gewijzigd: 27-09-2020 05:55
Bewolking  
Bewolking  
   Wind: NNO 24.1 km/h
Wind: NNO 24.1 km/h
Temperatuur: 15°C
Dauwpunt: 15°C
Vochtigheid: 100%
Barometer: 995 hPa
Bewolking: Bewolking
Zicht: meer dan 10 km
Bewolking: Licht bewolkt 1600 ft,
Grotendeels bewolkt 2900 ft,
Bewolking 3300 ft
EHDL 270355Z AUTO 02013KT 310V080 9999 FEW016 BKN029 OVC033 15/15 Q0995 BLU
EHRD - Rotterdam Airpor, Netherlands
Afstand tot: WZW 56 km
Gewijzigd: 27-09-2020 05:55
Wat regen mogelijk, Bewolking  
Wat regen mogelijk, Bewolking  
   Wind: Noorden 35.2 km/h
Wind: Noorden 35.2 km/h
Temperatuur: 16°C
Dauwpunt: 15°C
Vochtigheid: 94%
Barometer: 997 hPa
Bewolking: Bewolking
Zicht: meer dan 10 km
Bewolking: Licht bewolkt 700 ft,
Grotendeels bewolkt 900 ft,
Bewolking 1000 ft
EHRD 270355Z AUTO 36019KT 300V040 9999 -RA FEW007 BKN009 OVC010 16/15 Q0997 NOSIG
EHGR - Gilze-Rijen Rnla, Netherlands
Afstand tot: ZZW 70 km
Gewijzigd: 27-09-2020 05:55
Lichte (mot)regen, Bewolking  
Lichte (mot)regen, Bewolking  
   Wind: Noorden 25.9 km/h
Wind: Noorden 25.9 km/h
Temperatuur: 15°C
Dauwpunt: 14°C
Vochtigheid: 94%
Barometer: 995 hPa
Bewolking: Bewolking
Zicht: meer dan 10 km
Bewolking: Licht bewolkt 600 ft,
Grotendeels bewolkt 700 ft,
Bewolking 900 ft
EHGR 270355Z AUTO 35014KT 280V050 9999 -DZ FEW006 BKN007 OVC009 15/14 Q0995 GRN
EHVK - Volkel Rnlafb, Netherlands
Afstand tot: ZZO 70 km
Gewijzigd: 27-09-2020 06:03
Grotendeels bewolkt  
Grotendeels bewolkt  
   Wind: Noorden 16.7 km/h
Wind: Noorden 16.7 km/h
Temperatuur: 15°C
Dauwpunt: 14°C
Vochtigheid: 94%
Barometer: 994 hPa
Bewolking: Grotendeels bewolkt
Zicht: meer dan 10 km
Bewolking: Licht bewolkt 1200 ft,
Grotendeels bewolkt 1400 ft,
Grotendeels bewolkt 1600 ft
EHVK 270403Z AUTO 01009KT 330V040 9999 FEW012 BKN014 BKN016 15/14 Q0994 GRN
EHEH - Eindhoven Rnlafb, Netherlands
Afstand tot: Z 82 km
Gewijzigd: 27-09-2020 05:59
Motregen, Grotendeels bewolkt  
Motregen, Grotendeels bewolkt  
   Wind: Noorden 24.1 km/h
Wind: Noorden 24.1 km/h
Temperatuur: 15°C
Dauwpunt: 14°C
Vochtigheid: 94%
Barometer: 994 hPa
Bewolking: Grotendeels bewolkt
Zicht: 9 km
Bewolking: Licht bewolkt 600 ft,
Gedeeltelijk bewolkt 900 ft,
Grotendeels bewolkt 1000 ft
EHEH 270359Z AUTO 35013KT 310V040 9000 DZ FEW006 SCT009 BKN010 15/14 Q0994 GRN
EHKD - De Kooy (navy), Netherlands
Afstand tot: NNW 87 km
Gewijzigd: 27-09-2020 05:55
Wat regen mogelijk, Bewolking  
Wat regen mogelijk, Bewolking  
   Wind: NNO 29.6 km/h
Wind: NNO 29.6 km/h
Temperatuur: 16°C
Dauwpunt: 15°C
Vochtigheid: 94%
Barometer: 999 hPa
Bewolking: Bewolking
Zicht: 6 km
Bewolking: Grotendeels bewolkt 400 ft,
Bewolking 500 ft
EHKD 270355Z AUTO 02016KT 340V060 6000 -RA BKN004 OVC005 16/15 Q0999 YLO
EDLV - Niederrhein, Germany
Afstand tot: ZO 92 km
Gewijzigd: 27-09-2020 05:50
Lichte (mot)regen, Grotendeels bewolkt  
Lichte (mot)regen, Grotendeels bewolkt  
   Wind: NNO 9.3 km/h
Wind: NNO 9.3 km/h
Temperatuur: 15°C
Dauwpunt: 14°C
Vochtigheid: 94%
Barometer: 994 hPa
Bewolking: Grotendeels bewolkt
Zicht: 8 km
Bewolking: Grotendeels bewolkt 700 ft
EDLV 270350Z 03005KT 350V070 8000 -DZ BKN007 15/14 Q0994
EHWO - Woensdrecht Rnla, Netherlands
Afstand tot: ZW 100 km
Gewijzigd: 27-09-2020 05:55
Wat regen mogelijk, Motregen, Grotendeels bewolkt  
Wat regen mogelijk, Motregen, Grotendeels bewolkt  
   Wind: Noorden 24.1 km/h
Wind: Noorden 24.1 km/h
Temperatuur: 15°C
Dauwpunt: 14°C
Vochtigheid: 94%
Barometer: 996 hPa
Bewolking: Grotendeels bewolkt
Zicht: meer dan 10 km
Bewolking: Licht bewolkt 500 ft,
Grotendeels bewolkt 700 ft,
Grotendeels bewolkt 800 ft,
Licht bewolkt 1500 ft
EHWO 270355Z AUTO 36013KT 300V070 9999 -RADZ FEW005 BKN007 BKN008 FEW015CB 15/14 Q0996 GRN

Script ontwikkeld door  Saratoga-weather.org Aangepast voor de template door  Weerstation Leuven

Apparatuur in gebruik:

Weerstation
Davis VP2

Weerprogramma
Meteobridge

Weercomputer
MB-Pro

Webleverancier
easyhosting

Davis VP2

Meteobridge

MB-Pro

easyhosting